createdAt,value
2022-12-23T00:00:04.860Z,86.76
2022-12-23T00:00:14.831Z,86.74
2022-12-23T00:00:24.859Z,86.74
2022-12-23T00:00:35.201Z,86.72
2022-12-23T00:00:45.021Z,86.71
2022-12-23T00:00:54.822Z,86.67
2022-12-23T00:01:06.265Z,86.63
2022-12-23T00:01:14.830Z,86.69
2022-12-23T00:01:26.382Z,86.61
2022-12-23T00:01:36.412Z,86.71
2022-12-23T00:01:46.401Z,86.66
2022-12-23T00:01:56.381Z,86.66
2022-12-23T00:02:05.859Z,86.66
2022-12-23T00:02:16.405Z,86.56
2022-12-23T00:02:25.360Z,86.61
2022-12-23T00:02:36.011Z,86.52
2022-12-23T00:02:44.966Z,86.61
2022-12-23T00:02:55.141Z,86.54
2022-12-23T00:03:06.413Z,86.52
2022-12-23T00:03:14.959Z,86.56
2022-12-23T00:03:25.860Z,86.48
2022-12-23T00:03:36.358Z,86.52
2022-12-23T00:03:44.970Z,86.53
2022-12-23T00:03:54.871Z,86.48
2022-12-23T00:04:04.897Z,86.44
2022-12-23T00:04:14.883Z,86.53
2022-12-23T00:04:24.907Z,86.55
2022-12-23T00:04:34.803Z,86.52
2022-12-23T00:04:44.861Z,86.55
2022-12-23T00:04:54.813Z,86.52
2022-12-23T00:05:04.804Z,86.53
2022-12-23T00:05:14.794Z,86.51
2022-12-23T00:05:24.798Z,86.46
2022-12-23T00:05:37.944Z,86.50
2022-12-23T00:05:44.827Z,86.78
2022-12-23T00:05:54.792Z,86.68
2022-12-23T00:06:06.264Z,86.51
2022-12-23T00:06:14.797Z,86.50
2022-12-23T00:06:26.255Z,86.40
2022-12-23T00:06:36.260Z,86.39
2022-12-23T00:06:46.253Z,86.35
2022-12-23T00:06:54.799Z,86.38
2022-12-23T00:07:04.933Z,86.20
2022-12-23T00:07:14.862Z,86.26
2022-12-23T00:07:24.870Z,86.21
2022-12-23T00:07:34.934Z,86.25
2022-12-23T00:07:44.965Z,86.24
2022-12-23T00:07:54.892Z,86.19
2022-12-23T00:08:04.786Z,86.20
2022-12-23T00:08:16.221Z,86.20
2022-12-23T00:08:25.014Z,86.28
2022-12-23T00:08:34.942Z,86.15
2022-12-23T00:08:44.775Z,86.16
2022-12-23T00:08:55.025Z,86.16
2022-12-23T00:09:06.259Z,86.22
2022-12-23T00:09:14.944Z,86.26
2022-12-23T00:09:25.016Z,86.21
2022-12-23T00:09:34.916Z,86.19
2022-12-23T00:09:44.991Z,86.23
2022-12-23T00:09:54.765Z,86.25
2022-12-23T00:10:04.840Z,86.24
2022-12-23T00:10:14.990Z,86.26
2022-12-23T00:10:24.743Z,86.29
2022-12-23T00:10:35.033Z,86.19
2022-12-23T00:10:44.786Z,86.27
2022-12-23T00:10:56.197Z,86.22
2022-12-23T00:11:04.770Z,86.31
2022-12-23T00:11:15.096Z,86.22
2022-12-23T00:11:25.034Z,86.22
2022-12-23T00:11:36.213Z,86.16
2022-12-23T00:11:44.744Z,86.26
2022-12-23T00:11:54.853Z,86.16
2022-12-23T00:12:04.731Z,86.20
2022-12-23T00:12:14.759Z,86.24
2022-12-23T00:12:24.759Z,86.26
2022-12-23T00:12:35.575Z,86.25
2022-12-23T00:12:44.754Z,86.25
2022-12-23T00:12:54.804Z,86.17
2022-12-23T00:13:04.769Z,86.21
2022-12-23T00:13:14.767Z,86.22
2022-12-23T00:13:24.735Z,86.22
2022-12-23T00:13:34.739Z,86.14
2022-12-23T00:13:44.760Z,86.15
2022-12-23T00:13:54.740Z,86.21
2022-12-23T00:14:04.733Z,86.22
2022-12-23T00:14:21.161Z,86.16
2022-12-23T00:14:26.795Z,86.56
2022-12-23T00:14:35.310Z,86.40
2022-12-23T00:14:46.754Z,86.28
2022-12-23T00:14:55.318Z,86.30
2022-12-23T00:15:05.363Z,86.13
2022-12-23T00:15:15.351Z,86.17
2022-12-23T00:15:25.346Z,86.12
2022-12-23T00:15:35.334Z,86.16
2022-12-23T00:15:45.340Z,86.17
2022-12-23T00:15:55.341Z,86.21
2022-12-23T00:16:05.411Z,86.14
2022-12-23T00:16:16.811Z,86.20
2022-12-23T00:16:25.406Z,86.21
2022-12-23T00:16:35.367Z,86.16
2022-12-23T00:16:45.313Z,86.17
2022-12-23T00:16:55.394Z,86.19
2022-12-23T00:17:12.945Z,86.21
2022-12-23T00:17:22.453Z,86.58
2022-12-23T00:17:25.321Z,86.65
2022-12-23T00:17:35.320Z,86.48
2022-12-23T00:17:45.364Z,86.40
2022-12-23T00:17:55.386Z,86.34
2022-12-23T00:18:05.393Z,86.32
2022-12-23T00:18:15.293Z,86.35
2022-12-23T00:18:25.353Z,86.30
2022-12-23T00:18:35.383Z,86.32
2022-12-23T00:18:45.424Z,86.33
2022-12-23T00:18:55.492Z,86.31
2022-12-23T00:19:05.283Z,86.27
2022-12-23T00:19:15.312Z,86.21
2022-12-23T00:19:26.724Z,86.26
2022-12-23T00:19:36.740Z,86.24
2022-12-23T00:19:45.305Z,86.16
2022-12-23T00:19:55.480Z,86.12
2022-12-23T00:20:06.744Z,86.12
2022-12-23T00:20:15.312Z,86.20
2022-12-23T00:20:25.470Z,86.02
2022-12-23T00:20:35.266Z,86.07
2022-12-23T00:20:46.730Z,86.08
2022-12-23T00:20:56.715Z,86.10
2022-12-23T00:21:08.983Z,86.10
2022-12-23T00:21:15.766Z,86.27
2022-12-23T00:21:26.226Z,86.19
2022-12-23T00:21:35.343Z,86.13
2022-12-23T00:21:45.284Z,86.11
2022-12-23T00:21:55.275Z,86.05
2022-12-23T00:22:05.306Z,86.13
2022-12-23T00:22:15.295Z,86.08
2022-12-23T00:22:26.726Z,86.07
2022-12-23T00:22:36.235Z,86.10
2022-12-23T00:22:45.274Z,86.07
2022-12-23T00:22:55.351Z,86.01
2022-12-23T00:23:05.293Z,86.03
2022-12-23T00:23:15.281Z,86.05
2022-12-23T00:23:25.291Z,86.06
2022-12-23T00:23:35.236Z,86.06
2022-12-23T00:23:45.275Z,86.05
2022-12-23T00:23:55.274Z,86.02
2022-12-23T00:24:05.274Z,86.05
2022-12-23T00:24:16.720Z,86.04
2022-12-23T00:24:25.253Z,86.07
2022-12-23T00:24:35.274Z,86.02
2022-12-23T00:24:45.259Z,86.07
2022-12-23T00:24:55.247Z,86.06
2022-12-23T00:25:06.705Z,86.07
2022-12-23T00:25:15.239Z,86.15
2022-12-23T00:25:26.152Z,86.07
2022-12-23T00:25:35.247Z,86.17
2022-12-23T00:25:45.265Z,86.10
2022-12-23T00:25:55.245Z,86.07
2022-12-23T00:26:06.708Z,86.08
2022-12-23T00:26:16.232Z,86.16
2022-12-23T00:26:25.249Z,86.10
2022-12-23T00:26:35.237Z,86.06
2022-12-23T00:26:45.348Z,86.13
2022-12-23T00:26:55.524Z,86.10
2022-12-23T00:27:05.226Z,86.09
2022-12-23T00:27:15.241Z,86.05
2022-12-23T00:27:26.687Z,86.06
2022-12-23T00:27:37.823Z,86.13
2022-12-23T00:27:46.179Z,86.21
2022-12-23T00:27:55.662Z,86.26
2022-12-23T00:28:06.675Z,86.17
2022-12-23T00:28:15.211Z,86.12
2022-12-23T00:28:25.229Z,86.08
2022-12-23T00:28:36.684Z,86.02
2022-12-23T00:28:45.213Z,86.17
2022-12-23T00:28:56.649Z,86.05
2022-12-23T00:29:06.663Z,86.17
2022-12-23T00:29:16.655Z,86.12
2022-12-23T00:29:26.657Z,86.13
2022-12-23T00:29:35.227Z,86.12
2022-12-23T00:29:46.651Z,86.07
2022-12-23T00:29:55.258Z,86.15
2022-12-23T00:30:05.398Z,86.08
2022-12-23T00:30:15.195Z,86.07
2022-12-23T00:30:25.684Z,86.11
2022-12-23T00:30:36.163Z,86.06
2022-12-23T00:30:45.206Z,86.11
2022-12-23T00:30:55.259Z,86.01
2022-12-23T00:31:05.197Z,86.06
2022-12-23T00:31:15.250Z,86.05
2022-12-23T00:31:25.310Z,86.10
2022-12-23T00:31:35.275Z,86.09
2022-12-23T00:31:45.271Z,86.07
2022-12-23T00:31:56.081Z,86.06
2022-12-23T00:32:05.253Z,86.07
2022-12-23T00:32:15.591Z,86.02
2022-12-23T00:32:25.167Z,86.05
2022-12-23T00:32:35.967Z,86.00
2022-12-23T00:32:45.197Z,85.96
2022-12-23T00:32:55.233Z,85.93
2022-12-23T00:33:06.623Z,85.96
2022-12-23T00:33:15.283Z,86.01
2022-12-23T00:33:25.205Z,85.93
2022-12-23T00:33:35.201Z,85.93
2022-12-23T00:33:45.183Z,85.97
2022-12-23T00:33:56.114Z,86.00
2022-12-23T00:34:06.153Z,86.05
2022-12-23T00:34:16.646Z,85.99
2022-12-23T00:34:25.178Z,86.10
2022-12-23T00:34:35.188Z,85.99
2022-12-23T00:34:46.618Z,85.92
2022-12-23T00:34:56.629Z,86.00
2022-12-23T00:35:05.157Z,86.01
2022-12-23T00:35:16.624Z,85.89
2022-12-23T00:35:26.611Z,86.00
2022-12-23T00:35:35.161Z,86.01
2022-12-23T00:35:45.232Z,85.87
2022-12-23T00:35:55.210Z,85.93
2022-12-23T00:36:05.215Z,85.84
2022-12-23T00:36:15.297Z,85.85
2022-12-23T00:36:26.692Z,85.76
2022-12-23T00:36:35.203Z,85.79
2022-12-23T00:36:45.149Z,85.66
2022-12-23T00:36:55.183Z,85.65
2022-12-23T00:37:05.198Z,85.70
2022-12-23T00:37:15.160Z,85.68
2022-12-23T00:37:25.160Z,85.69
2022-12-23T00:37:35.159Z,85.69
2022-12-23T00:37:45.150Z,85.71
2022-12-23T00:37:55.188Z,85.71
2022-12-23T00:38:05.950Z,85.67
2022-12-23T00:38:15.180Z,85.73
2022-12-23T00:38:25.149Z,85.71
2022-12-23T00:38:35.151Z,85.67
2022-12-23T00:38:45.151Z,85.60
2022-12-23T00:38:55.156Z,85.62
2022-12-23T00:39:05.224Z,85.58
2022-12-23T00:39:15.146Z,85.54
2022-12-23T00:39:25.138Z,85.56
2022-12-23T00:39:35.129Z,85.61
2022-12-23T00:39:45.146Z,85.60
2022-12-23T00:39:55.785Z,85.58
2022-12-23T00:40:07.126Z,85.67
2022-12-23T00:40:16.591Z,85.64
2022-12-23T00:40:25.150Z,85.58
2022-12-23T00:40:35.129Z,85.45
2022-12-23T00:40:46.579Z,85.52
2022-12-23T00:40:55.140Z,85.54
2022-12-23T00:41:05.129Z,85.50
2022-12-23T00:41:15.483Z,85.50
2022-12-23T00:41:25.099Z,85.58
2022-12-23T00:41:35.135Z,85.52
2022-12-23T00:41:46.576Z,85.53
2022-12-23T00:41:55.129Z,85.57
2022-12-23T00:42:05.123Z,85.46
2022-12-23T00:42:15.128Z,85.51
2022-12-23T00:42:25.113Z,85.50
2022-12-23T00:42:35.131Z,85.47
2022-12-23T00:42:45.120Z,85.46
2022-12-23T00:42:55.121Z,85.47
2022-12-23T00:43:05.137Z,85.52
2022-12-23T00:43:15.227Z,85.47
2022-12-23T00:43:25.091Z,85.50
2022-12-23T00:43:36.602Z,85.53
2022-12-23T00:43:45.109Z,85.55
2022-12-23T00:43:56.551Z,85.46
2022-12-23T00:44:05.705Z,85.49
2022-12-23T00:44:15.108Z,85.43
2022-12-23T00:44:25.073Z,85.38
2022-12-23T00:44:35.190Z,85.44
2022-12-23T00:44:45.500Z,85.43
2022-12-23T00:44:56.560Z,85.43
2022-12-23T00:45:05.118Z,85.52
2022-12-23T00:45:15.106Z,85.44
2022-12-23T00:45:25.653Z,85.40
2022-12-23T00:45:35.743Z,85.44
2022-12-23T00:45:46.589Z,85.46
2022-12-23T00:45:55.187Z,85.48
2022-12-23T00:46:05.433Z,85.41
2022-12-23T00:46:15.839Z,85.45
2022-12-23T00:46:25.998Z,85.50
2022-12-23T00:46:35.153Z,85.53
2022-12-23T00:46:45.112Z,85.45
2022-12-23T00:46:55.772Z,85.45
2022-12-23T00:47:05.091Z,85.51
2022-12-23T00:47:15.085Z,85.49
2022-12-23T00:47:25.273Z,85.43
2022-12-23T00:47:35.608Z,85.42
2022-12-23T00:47:45.542Z,85.48
2022-12-23T00:47:55.779Z,85.42
2022-12-23T00:48:05.838Z,85.47
2022-12-23T00:48:15.072Z,85.45
2022-12-23T00:48:25.894Z,85.42
2022-12-23T00:48:35.178Z,85.54
2022-12-23T00:48:45.081Z,85.47
2022-12-23T00:48:55.104Z,85.44
2022-12-23T00:49:05.924Z,85.50
2022-12-23T00:49:15.945Z,85.53
2022-12-23T00:49:25.085Z,85.55
2022-12-23T00:49:35.041Z,85.48
2022-12-23T00:49:45.086Z,85.42
2022-12-23T00:49:55.290Z,85.49
2022-12-23T00:50:05.048Z,85.48
2022-12-23T00:50:16.517Z,85.50
2022-12-23T00:50:25.058Z,85.59
2022-12-23T00:50:35.075Z,85.49
2022-12-23T00:50:46.018Z,85.55
2022-12-23T00:50:56.513Z,85.58
2022-12-23T00:51:06.506Z,85.49
2022-12-23T00:51:15.074Z,85.59
2022-12-23T00:51:25.083Z,85.45
2022-12-23T00:51:35.067Z,85.53
2022-12-23T00:51:45.048Z,85.47
2022-12-23T00:51:55.069Z,85.55
2022-12-23T00:52:05.071Z,85.55
2022-12-23T00:52:15.109Z,85.56
2022-12-23T00:52:25.046Z,85.50
2022-12-23T00:52:35.043Z,85.50
2022-12-23T00:52:46.507Z,85.54
2022-12-23T00:52:55.081Z,85.67
2022-12-23T00:53:06.483Z,85.57
2022-12-23T00:53:16.484Z,85.59
2022-12-23T00:53:25.038Z,85.65
2022-12-23T00:53:35.025Z,85.49
2022-12-23T00:53:45.052Z,85.52
2022-12-23T00:53:55.071Z,85.51
2022-12-23T00:54:05.041Z,85.54
2022-12-23T00:54:15.055Z,85.51
2022-12-23T00:54:25.042Z,85.49
2022-12-23T00:54:35.048Z,85.53
2022-12-23T00:54:45.052Z,85.42
2022-12-23T00:54:56.474Z,85.50
2022-12-23T00:55:06.541Z,85.55
2022-12-23T00:55:15.017Z,85.56
2022-12-23T00:55:25.053Z,85.45
2022-12-23T00:55:35.013Z,85.50
2022-12-23T00:55:45.033Z,85.51
2022-12-23T00:55:55.777Z,85.52
2022-12-23T00:56:05.025Z,85.52
2022-12-23T00:56:15.043Z,85.47
2022-12-23T00:56:26.463Z,85.51
2022-12-23T00:56:35.015Z,85.57
2022-12-23T00:56:45.028Z,85.49
2022-12-23T00:56:55.015Z,85.50
2022-12-23T00:57:05.026Z,85.49
2022-12-23T00:57:14.982Z,85.50
2022-12-23T00:57:25.029Z,85.52
2022-12-23T00:57:35.008Z,85.52
2022-12-23T00:57:44.997Z,85.52
2022-12-23T00:57:55.022Z,85.54
2022-12-23T00:58:06.463Z,85.54
2022-12-23T00:58:16.434Z,85.57
2022-12-23T00:58:25.054Z,85.56
2022-12-23T00:58:36.463Z,85.49
2022-12-23T00:58:45.004Z,85.57
2022-12-23T00:58:55.053Z,85.51
2022-12-23T00:59:04.994Z,85.56
2022-12-23T00:59:14.999Z,85.57
2022-12-23T00:59:26.434Z,85.59
2022-12-23T00:59:34.992Z,85.60
2022-12-23T00:59:45.048Z,85.64
2022-12-23T00:59:54.987Z,85.60
2022-12-23T01:00:05.016Z,85.56
2022-12-23T01:00:14.964Z,85.64
2022-12-23T01:00:26.424Z,85.62
2022-12-23T01:00:35.941Z,85.72
2022-12-23T01:00:45.034Z,85.65
2022-12-23T01:00:55.011Z,85.58
2022-12-23T01:01:05.859Z,85.65
2022-12-23T01:01:16.501Z,85.70
2022-12-23T01:01:26.577Z,85.69
2022-12-23T01:01:35.022Z,85.68
2022-12-23T01:01:45.133Z,85.62
2022-12-23T01:01:56.754Z,85.72
2022-12-23T01:02:06.613Z,85.75
2022-12-23T01:02:16.019Z,85.72
2022-12-23T01:02:25.163Z,85.63
2022-12-23T01:02:36.597Z,85.63
2022-12-23T01:02:45.058Z,85.73
2022-12-23T01:02:55.685Z,85.67
2022-12-23T01:03:06.561Z,85.73
2022-12-23T01:03:15.093Z,85.76
2022-12-23T01:03:25.892Z,85.67
2022-12-23T01:03:34.993Z,85.76
2022-12-23T01:03:44.971Z,85.70
2022-12-23T01:03:54.956Z,85.75
2022-12-23T01:04:04.969Z,85.76
2022-12-23T01:04:16.405Z,85.78
2022-12-23T01:04:24.988Z,85.82
2022-12-23T01:04:34.945Z,85.72
2022-12-23T01:04:44.992Z,85.79
2022-12-23T01:04:54.953Z,85.76
2022-12-23T01:05:05.015Z,85.78
2022-12-23T01:05:14.991Z,85.78
2022-12-23T01:05:24.933Z,85.82
2022-12-23T01:05:34.956Z,85.81
2022-12-23T01:05:46.407Z,85.82
2022-12-23T01:05:55.615Z,85.83
2022-12-23T01:06:04.944Z,85.82
2022-12-23T01:06:14.953Z,85.75
2022-12-23T01:06:25.023Z,85.80
2022-12-23T01:06:35.716Z,85.78
2022-12-23T01:06:45.167Z,85.88
2022-12-23T01:06:54.910Z,85.83
2022-12-23T01:07:05.741Z,85.79
2022-12-23T01:07:14.925Z,85.86
2022-12-23T01:07:24.974Z,85.78
2022-12-23T01:07:35.729Z,85.83
2022-12-23T01:07:45.785Z,85.84
2022-12-23T01:07:54.936Z,85.86
2022-12-23T01:08:05.741Z,85.84
2022-12-23T01:08:16.377Z,85.85
2022-12-23T01:08:24.927Z,85.91
2022-12-23T01:08:35.836Z,85.79
2022-12-23T01:08:44.928Z,85.87
2022-12-23T01:08:55.835Z,85.82
2022-12-23T01:09:05.797Z,85.85
2022-12-23T01:09:14.918Z,85.88
2022-12-23T01:09:24.928Z,85.79
2022-12-23T01:09:34.975Z,85.81
2022-12-23T01:09:44.898Z,85.85
2022-12-23T01:09:54.928Z,85.82
2022-12-23T01:10:04.927Z,85.85
2022-12-23T01:10:14.914Z,85.87
2022-12-23T01:10:26.349Z,85.88
2022-12-23T01:10:34.895Z,85.93
2022-12-23T01:10:44.907Z,85.83
2022-12-23T01:10:56.367Z,85.84
2022-12-23T01:11:04.913Z,85.92
2022-12-23T01:11:16.357Z,85.81
2022-12-23T01:11:25.818Z,85.89
2022-12-23T01:11:34.903Z,85.86
2022-12-23T01:11:45.122Z,85.83
2022-12-23T01:11:56.367Z,85.86
2022-12-23T01:12:04.907Z,85.95
2022-12-23T01:12:16.341Z,85.82
2022-12-23T01:12:25.024Z,85.90
2022-12-23T01:12:35.845Z,85.83
2022-12-23T01:12:46.357Z,85.90
2022-12-23T01:12:54.905Z,85.90
2022-12-23T01:13:06.337Z,85.83
2022-12-23T01:13:14.990Z,85.95
2022-12-23T01:13:25.008Z,85.84
2022-12-23T01:13:35.078Z,85.84
2022-12-23T01:13:45.082Z,85.85
2022-12-23T01:13:55.011Z,85.89
2022-12-23T01:14:05.078Z,85.88
2022-12-23T01:14:15.207Z,85.92
2022-12-23T01:14:25.153Z,85.86
2022-12-23T01:14:35.100Z,85.94
2022-12-23T01:14:45.118Z,85.91
2022-12-23T01:14:55.156Z,85.93
2022-12-23T01:15:04.900Z,85.93
2022-12-23T01:15:14.882Z,85.94
2022-12-23T01:15:25.164Z,85.92
2022-12-23T01:15:35.158Z,85.99
2022-12-23T01:15:45.113Z,85.93
2022-12-23T01:15:55.169Z,85.95
2022-12-23T01:16:05.258Z,85.96
2022-12-23T01:16:17.771Z,86.01
2022-12-23T01:16:25.179Z,86.22
2022-12-23T01:16:35.080Z,86.12
2022-12-23T01:16:46.380Z,86.03
2022-12-23T01:16:55.099Z,86.07
2022-12-23T01:17:04.915Z,86.01
2022-12-23T01:17:16.458Z,86.00
2022-12-23T01:17:25.409Z,86.09
2022-12-23T01:17:35.837Z,86.00
2022-12-23T01:17:44.869Z,86.00
2022-12-23T01:17:54.959Z,85.96
2022-12-23T01:18:04.880Z,86.00
2022-12-23T01:18:14.876Z,85.99
2022-12-23T01:18:24.861Z,85.99
2022-12-23T01:18:34.869Z,86.03
2022-12-23T01:18:44.909Z,86.03
2022-12-23T01:18:55.281Z,85.99
2022-12-23T01:19:04.829Z,86.01
2022-12-23T01:19:14.853Z,85.99
2022-12-23T01:19:24.848Z,86.01
2022-12-23T01:19:36.289Z,86.02
2022-12-23T01:19:45.793Z,86.10
2022-12-23T01:19:56.293Z,86.08
2022-12-23T01:20:05.833Z,86.09
2022-12-23T01:20:14.841Z,86.06
2022-12-23T01:20:24.862Z,86.02
2022-12-23T01:20:34.833Z,86.00
2022-12-23T01:20:46.309Z,86.05
2022-12-23T01:20:54.872Z,86.11
2022-12-23T01:21:04.849Z,86.01
2022-12-23T01:21:14.856Z,86.08
2022-12-23T01:21:24.850Z,86.02
2022-12-23T01:21:36.279Z,86.02
2022-12-23T01:21:44.969Z,86.09
2022-12-23T01:21:54.829Z,86.03
2022-12-23T01:22:04.859Z,86.01
2022-12-23T01:22:14.839Z,86.05
2022-12-23T01:22:24.859Z,86.02
2022-12-23T01:22:34.801Z,86.02
2022-12-23T01:22:46.295Z,86.03
2022-12-23T01:22:54.829Z,86.07
2022-12-23T01:23:04.855Z,85.98
2022-12-23T01:23:14.836Z,85.98
2022-12-23T01:23:24.830Z,85.96
2022-12-23T01:23:34.823Z,85.97
2022-12-23T01:23:45.827Z,85.96
2022-12-23T01:23:54.828Z,86.02
2022-12-23T01:24:04.840Z,85.97
2022-12-23T01:24:14.800Z,85.92
2022-12-23T01:24:24.841Z,85.95
2022-12-23T01:24:36.274Z,85.93
2022-12-23T01:24:46.323Z,85.99
2022-12-23T01:24:56.284Z,85.94
2022-12-23T01:25:04.838Z,85.94
2022-12-23T01:25:14.808Z,85.85
2022-12-23T01:25:24.832Z,85.92
2022-12-23T01:25:34.860Z,85.90
2022-12-23T01:25:46.250Z,85.98
2022-12-23T01:25:56.259Z,85.97
2022-12-23T01:26:04.794Z,85.97
2022-12-23T01:26:16.250Z,85.83
2022-12-23T01:26:24.835Z,85.96
2022-12-23T01:26:34.831Z,85.83
2022-12-23T01:26:46.311Z,85.85
2022-12-23T01:26:55.774Z,85.92
2022-12-23T01:27:04.806Z,85.87
2022-12-23T01:27:16.265Z,85.79
2022-12-23T01:27:24.801Z,85.83
2022-12-23T01:27:34.810Z,85.82
2022-12-23T01:27:46.254Z,85.84
2022-12-23T01:27:56.263Z,85.84
2022-12-23T01:28:04.804Z,85.82
2022-12-23T01:28:14.795Z,85.79
2022-12-23T01:28:25.730Z,85.76
2022-12-23T01:28:34.802Z,85.83
2022-12-23T01:28:44.809Z,85.73
2022-12-23T01:28:54.784Z,85.74
2022-12-23T01:29:04.841Z,85.70
2022-12-23T01:29:14.794Z,85.72
2022-12-23T01:29:26.257Z,85.75
2022-12-23T01:29:34.773Z,85.88
2022-12-23T01:29:45.743Z,85.73
2022-12-23T01:29:56.211Z,85.74
2022-12-23T01:30:04.773Z,85.75
2022-12-23T01:30:16.221Z,85.64
2022-12-23T01:30:26.200Z,85.74
2022-12-23T01:30:34.765Z,85.74
2022-12-23T01:30:44.762Z,85.63
2022-12-23T01:30:54.812Z,85.63
2022-12-23T01:31:06.222Z,85.69
2022-12-23T01:31:14.786Z,85.78
2022-12-23T01:31:24.871Z,85.58
2022-12-23T01:31:34.899Z,85.62
2022-12-23T01:31:44.850Z,85.62
2022-12-23T01:31:54.901Z,85.70
2022-12-23T01:32:04.902Z,85.72
2022-12-23T01:32:14.908Z,85.66
2022-12-23T01:32:24.750Z,85.65
2022-12-23T01:32:34.819Z,85.69
2022-12-23T01:32:44.755Z,85.68
2022-12-23T01:32:54.772Z,85.67
2022-12-23T01:33:04.779Z,85.72
2022-12-23T01:33:14.760Z,85.68
2022-12-23T01:33:24.982Z,85.68
2022-12-23T01:33:34.774Z,85.70
2022-12-23T01:33:44.776Z,85.65
2022-12-23T01:33:54.761Z,85.67
2022-12-23T01:34:04.758Z,85.65
2022-12-23T01:34:14.810Z,85.63
2022-12-23T01:34:24.768Z,85.67
2022-12-23T01:34:37.411Z,85.65
2022-12-23T01:34:44.792Z,85.87
2022-12-23T01:34:54.789Z,85.83
2022-12-23T01:35:04.729Z,85.79
2022-12-23T01:35:14.713Z,85.68
2022-12-23T01:35:24.722Z,85.66
2022-12-23T01:35:34.788Z,85.66
2022-12-23T01:35:46.164Z,85.68
2022-12-23T01:35:54.734Z,85.73
2022-12-23T01:36:04.712Z,85.63
2022-12-23T01:36:14.773Z,85.63
2022-12-23T01:36:26.153Z,85.57
2022-12-23T01:36:34.744Z,85.73
2022-12-23T01:36:46.176Z,85.55
2022-12-23T01:36:54.732Z,85.67
2022-12-23T01:37:04.850Z,85.56
2022-12-23T01:37:16.159Z,85.57
2022-12-23T01:37:26.189Z,85.71
2022-12-23T01:37:34.742Z,85.65
2022-12-23T01:37:44.740Z,85.53
2022-12-23T01:37:54.730Z,85.60
2022-12-23T01:38:04.721Z,85.60
2022-12-23T01:38:16.164Z,85.61
2022-12-23T01:38:24.712Z,85.71
2022-12-23T01:38:34.705Z,85.58
2022-12-23T01:38:44.714Z,85.62
2022-12-23T01:38:56.191Z,85.58
2022-12-23T01:39:04.716Z,85.71
2022-12-23T01:39:14.706Z,85.62
2022-12-23T01:39:25.151Z,85.59
2022-12-23T01:39:34.694Z,85.65
2022-12-23T01:39:44.702Z,85.60
2022-12-23T01:39:54.746Z,85.55
2022-12-23T01:40:06.143Z,85.56
2022-12-23T01:40:14.729Z,85.63
2022-12-23T01:40:25.133Z,85.57
2022-12-23T01:40:34.704Z,85.57
2022-12-23T01:40:46.141Z,85.56
2022-12-23T01:40:54.747Z,85.60
2022-12-23T01:41:04.784Z,85.53
2022-12-23T01:41:16.131Z,85.62
2022-12-23T01:41:24.691Z,85.63
2022-12-23T01:41:34.714Z,85.55
2022-12-23T01:41:46.138Z,85.59
2022-12-23T01:41:54.695Z,85.63
2022-12-23T01:42:04.719Z,85.55
2022-12-23T01:42:14.684Z,85.58
2022-12-23T01:42:24.952Z,85.58
2022-12-23T01:42:34.696Z,85.59
2022-12-23T01:42:44.679Z,85.59
2022-12-23T01:42:54.686Z,85.60
2022-12-23T01:43:06.136Z,85.59
2022-12-23T01:43:14.715Z,85.64
2022-12-23T01:43:25.116Z,85.56
2022-12-23T01:43:35.158Z,85.63
2022-12-23T01:43:45.094Z,85.58
2022-12-23T01:43:55.123Z,85.56
2022-12-23T01:44:05.185Z,85.59
2022-12-23T01:44:15.098Z,85.62
2022-12-23T01:44:25.015Z,85.56
2022-12-23T01:44:34.693Z,85.59
2022-12-23T01:44:44.726Z,85.59
2022-12-23T01:44:54.678Z,85.56
2022-12-23T01:45:05.156Z,85.58
2022-12-23T01:45:14.655Z,85.59
2022-12-23T01:45:25.132Z,85.52
2022-12-23T01:45:34.791Z,85.54
2022-12-23T01:45:45.136Z,85.51
2022-12-23T01:45:54.728Z,85.51
2022-12-23T01:46:05.169Z,85.50
2022-12-23T01:46:15.319Z,85.55
2022-12-23T01:46:24.709Z,85.49
2022-12-23T01:46:34.635Z,85.52
2022-12-23T01:46:46.074Z,85.52
2022-12-23T01:46:54.645Z,85.61
2022-12-23T01:47:04.705Z,85.55
2022-12-23T01:47:15.445Z,85.58
2022-12-23T01:47:24.657Z,85.62
2022-12-23T01:47:36.155Z,85.55
2022-12-23T01:47:44.661Z,85.72
2022-12-23T01:47:54.682Z,85.56
2022-12-23T01:48:06.126Z,85.62
2022-12-23T01:48:14.801Z,85.69
2022-12-23T01:48:24.644Z,85.65
2022-12-23T01:48:34.637Z,85.63
2022-12-23T01:48:44.648Z,85.68
2022-12-23T01:48:54.666Z,85.67
2022-12-23T01:49:06.112Z,85.61
2022-12-23T01:49:14.633Z,85.71
2022-12-23T01:49:26.106Z,85.59
2022-12-23T01:49:35.601Z,85.71
2022-12-23T01:49:46.073Z,85.70
2022-12-23T01:49:54.626Z,85.75
2022-12-23T01:50:04.652Z,85.58
2022-12-23T01:50:14.645Z,85.64
2022-12-23T01:50:24.641Z,85.69
2022-12-23T01:50:36.079Z,85.62
2022-12-23T01:50:44.657Z,85.72
2022-12-23T01:50:54.627Z,85.60
2022-12-23T01:51:05.597Z,85.63
2022-12-23T01:51:16.086Z,85.63
2022-12-23T01:51:26.809Z,85.68
2022-12-23T01:51:34.636Z,85.70
2022-12-23T01:51:45.544Z,85.54
2022-12-23T01:51:54.619Z,85.65
2022-12-23T01:52:04.612Z,85.58
2022-12-23T01:52:14.617Z,85.60
2022-12-23T01:52:24.639Z,85.62
2022-12-23T01:52:34.640Z,85.64
2022-12-23T01:52:44.630Z,85.64
2022-12-23T01:52:54.731Z,85.65
2022-12-23T01:53:07.807Z,85.70
2022-12-23T01:53:16.089Z,85.96
2022-12-23T01:53:26.043Z,85.92
2022-12-23T01:53:34.598Z,85.80
2022-12-23T01:53:46.058Z,85.66
2022-12-23T01:53:54.595Z,85.76
2022-12-23T01:54:04.617Z,85.67
2022-12-23T01:54:14.607Z,85.69
2022-12-23T01:54:26.038Z,85.76
2022-12-23T01:54:34.600Z,85.86
2022-12-23T01:54:44.640Z,85.73
2022-12-23T01:54:56.111Z,85.74
2022-12-23T01:55:04.596Z,85.86
2022-12-23T01:55:14.976Z,85.78
2022-12-23T01:55:24.586Z,85.77
2022-12-23T01:55:34.936Z,85.80
2022-12-23T01:55:44.586Z,85.80
2022-12-23T01:55:54.594Z,85.78
2022-12-23T01:56:05.070Z,85.81
2022-12-23T01:56:14.567Z,85.83
2022-12-23T01:56:24.845Z,85.79
2022-12-23T01:56:34.582Z,85.84
2022-12-23T01:56:46.027Z,85.83
2022-12-23T01:56:56.027Z,85.92
2022-12-23T01:57:04.590Z,85.87
2022-12-23T01:57:14.583Z,85.85
2022-12-23T01:57:26.027Z,85.83
2022-12-23T01:57:34.938Z,85.93
2022-12-23T01:57:44.575Z,85.85
2022-12-23T01:57:54.577Z,85.84
2022-12-23T01:58:04.570Z,85.87
2022-12-23T01:58:16.067Z,85.86
2022-12-23T01:58:26.015Z,85.94
2022-12-23T01:58:34.580Z,85.94
2022-12-23T01:58:44.561Z,85.86
2022-12-23T01:58:54.588Z,85.88
2022-12-23T01:59:06.025Z,85.90
2022-12-23T01:59:14.569Z,85.94
2022-12-23T01:59:24.589Z,85.90
2022-12-23T01:59:34.611Z,85.92
2022-12-23T01:59:44.549Z,85.90
2022-12-23T01:59:54.570Z,85.92
2022-12-23T02:00:06.059Z,85.91
2022-12-23T02:00:14.719Z,86.02
2022-12-23T02:00:24.829Z,85.92
2022-12-23T02:00:35.289Z,85.94
2022-12-23T02:00:44.549Z,85.98
2022-12-23T02:00:54.612Z,85.91
2022-12-23T02:01:05.494Z,85.91
2022-12-23T02:01:16.078Z,86.02
2022-12-23T02:01:24.685Z,86.01
2022-12-23T02:01:34.726Z,85.96
2022-12-23T02:01:44.799Z,85.95
2022-12-23T02:01:54.685Z,86.00
2022-12-23T02:02:06.153Z,85.99
2022-12-23T02:02:14.781Z,86.06
2022-12-23T02:02:26.160Z,85.97
2022-12-23T02:02:34.719Z,86.04
2022-12-23T02:02:46.008Z,85.96
2022-12-23T02:02:54.657Z,86.05
2022-12-23T02:03:06.217Z,85.98
2022-12-23T02:03:14.754Z,86.10
2022-12-23T02:03:24.607Z,86.07
2022-12-23T02:03:36.038Z,86.04
2022-12-23T02:03:44.842Z,86.11
2022-12-23T02:03:56.075Z,86.03
2022-12-23T02:04:05.511Z,86.11
2022-12-23T02:04:14.560Z,86.06
2022-12-23T02:04:24.536Z,86.02
2022-12-23T02:04:34.533Z,86.02
2022-12-23T02:04:44.553Z,86.04
2022-12-23T02:04:54.525Z,86.06
2022-12-23T02:05:05.974Z,86.10
2022-12-23T02:05:14.522Z,86.18
2022-12-23T02:05:24.567Z,86.07
2022-12-23T02:05:34.512Z,86.09
2022-12-23T02:05:44.521Z,86.11
2022-12-23T02:05:54.529Z,86.09
2022-12-23T02:06:04.510Z,86.10
2022-12-23T02:06:14.510Z,86.10
2022-12-23T02:06:25.957Z,86.12
2022-12-23T02:06:34.563Z,86.17
2022-12-23T02:06:45.959Z,86.07
2022-12-23T02:06:54.544Z,86.13
2022-12-23T02:07:05.980Z,86.00
2022-12-23T02:07:14.490Z,86.09
2022-12-23T02:07:24.523Z,85.99
2022-12-23T02:07:34.511Z,86.03
2022-12-23T02:07:44.515Z,86.01
2022-12-23T02:07:54.511Z,86.00
2022-12-23T02:08:04.501Z,86.05
2022-12-23T02:08:14.504Z,86.10
2022-12-23T02:08:24.515Z,86.06
2022-12-23T02:08:34.525Z,86.03
2022-12-23T02:08:44.510Z,86.08